sensor_id;sensor_type;location;lat;lon;timestamp;temperature;humidity
44117;DHT22;29781;49.480;8.512;2024-03-17T00:01:01;8.50;99.90
44117;DHT22;29781;49.480;8.512;2024-03-17T00:03:27;8.30;99.90
44117;DHT22;29781;49.480;8.512;2024-03-17T00:05:57;8.30;99.90
44117;DHT22;29781;49.480;8.512;2024-03-17T00:08:23;8.30;99.90
44117;DHT22;29781;49.480;8.512;2024-03-17T00:10:55;8.40;99.90
44117;DHT22;29781;49.480;8.512;2024-03-17T00:13:21;8.30;99.90
44117;DHT22;29781;49.480;8.512;2024-03-17T00:15:50;8.20;99.90
44117;DHT22;29781;49.480;8.512;2024-03-17T00:18:16;8.10;99.90
44117;DHT22;29781;49.480;8.512;2024-03-17T00:20:42;8.10;99.90
44117;DHT22;29781;49.480;8.512;2024-03-17T00:23:08;8.50;99.90
44117;DHT22;29781;49.480;8.512;2024-03-17T00:25:35;8.90;99.90
44117;DHT22;29781;49.480;8.512;2024-03-17T00:28:01;9.10;99.90
44117;DHT22;29781;49.480;8.512;2024-03-17T00:30:27;9.10;99.90
44117;DHT22;29781;49.480;8.512;2024-03-17T00:32:53;9.20;99.90
44117;DHT22;29781;49.480;8.512;2024-03-17T00:35:19;9.20;99.90
44117;DHT22;29781;49.480;8.512;2024-03-17T00:37:48;8.80;99.90
44117;DHT22;29781;49.480;8.512;2024-03-17T00:40:14;8.50;99.90
44117;DHT22;29781;49.480;8.512;2024-03-17T00:42:40;8.50;99.90
44117;DHT22;29781;49.480;8.512;2024-03-17T00:45:09;8.50;99.90
44117;DHT22;29781;49.480;8.512;2024-03-17T00:47:36;8.70;99.90
44117;DHT22;29781;49.480;8.512;2024-03-17T00:50:02;8.80;99.90
44117;DHT22;29781;49.480;8.512;2024-03-17T00:52:29;9.10;99.90
44117;DHT22;29781;49.480;8.512;2024-03-17T00:54:55;8.90;99.90
44117;DHT22;29781;49.480;8.512;2024-03-17T00:57:20;8.40;99.90
44117;DHT22;29781;49.480;8.512;2024-03-17T00:59:46;8.00;99.90
44117;DHT22;29781;49.480;8.512;2024-03-17T01:02:12;7.80;99.90
44117;DHT22;29781;49.480;8.512;2024-03-17T01:04:39;7.70;99.90
44117;DHT22;29781;49.480;8.512;2024-03-17T01:07:05;8.00;99.90
44117;DHT22;29781;49.480;8.512;2024-03-17T01:09:31;8.40;99.90
44117;DHT22;29781;49.480;8.512;2024-03-17T01:11:57;8.60;99.90
44117;DHT22;29781;49.480;8.512;2024-03-17T01:14:22;8.70;99.90
44117;DHT22;29781;49.480;8.512;2024-03-17T01:16:48;8.70;99.90
44117;DHT22;29781;49.480;8.512;2024-03-17T01:19:15;8.60;99.90
44117;DHT22;29781;49.480;8.512;2024-03-17T01:21:41;8.60;99.90
44117;DHT22;29781;49.480;8.512;2024-03-17T01:24:06;8.60;99.90
44117;DHT22;29781;49.480;8.512;2024-03-17T01:26:32;8.70;99.90
44117;DHT22;29781;49.480;8.512;2024-03-17T01:28:57;8.80;99.90
44117;DHT22;29781;49.480;8.512;2024-03-17T01:31:23;8.80;99.90
44117;DHT22;29781;49.480;8.512;2024-03-17T01:33:48;8.80;99.90
44117;DHT22;29781;49.480;8.512;2024-03-17T01:36:14;8.80;99.90
44117;DHT22;29781;49.480;8.512;2024-03-17T01:38:39;8.80;99.90
44117;DHT22;29781;49.480;8.512;2024-03-17T01:41:05;8.80;99.90
44117;DHT22;29781;49.480;8.512;2024-03-17T01:43:30;8.80;99.90
44117;DHT22;29781;49.480;8.512;2024-03-17T01:45:57;8.80;99.90
44117;DHT22;29781;49.480;8.512;2024-03-17T01:48:23;8.80;99.90
44117;DHT22;29781;49.480;8.512;2024-03-17T01:50:52;8.80;99.90
44117;DHT22;29781;49.480;8.512;2024-03-17T01:53:21;8.60;99.90
44117;DHT22;29781;49.480;8.512;2024-03-17T01:55:49;8.50;99.90
44117;DHT22;29781;49.480;8.512;2024-03-17T01:58:15;8.50;99.90
44117;DHT22;29781;49.480;8.512;2024-03-17T02:00:42;8.60;99.90
44117;DHT22;29781;49.480;8.512;2024-03-17T02:03:08;8.80;99.90
44117;DHT22;29781;49.480;8.512;2024-03-17T02:05:34;8.70;99.90
44117;DHT22;29781;49.480;8.512;2024-03-17T02:08:00;8.70;99.90
44117;DHT22;29781;49.480;8.512;2024-03-17T02:10:27;8.30;99.90
44117;DHT22;29781;49.480;8.512;2024-03-17T02:12:53;8.20;99.90
44117;DHT22;29781;49.480;8.512;2024-03-17T02:15:19;8.30;99.90
44117;DHT22;29781;49.480;8.512;2024-03-17T02:17:44;8.10;99.90
44117;DHT22;29781;49.480;8.512;2024-03-17T02:20:10;7.90;99.90
44117;DHT22;29781;49.480;8.512;2024-03-17T02:22:37;7.60;99.90
44117;DHT22;29781;49.480;8.512;2024-03-17T02:25:03;7.30;99.90
44117;DHT22;29781;49.480;8.512;2024-03-17T02:27:29;7.20;99.90
44117;DHT22;29781;49.480;8.512;2024-03-17T02:29:55;7.40;99.90
44117;DHT22;29781;49.480;8.512;2024-03-17T02:32:21;7.40;99.90
44117;DHT22;29781;49.480;8.512;2024-03-17T02:34:48;7.10;99.90
44117;DHT22;29781;49.480;8.512;2024-03-17T02:37:13;6.80;99.90
44117;DHT22;29781;49.480;8.512;2024-03-17T02:39:39;6.70;99.90
44117;DHT22;29781;49.480;8.512;2024-03-17T02:42:06;6.60;99.90
44117;DHT22;29781;49.480;8.512;2024-03-17T02:44:33;6.50;99.90
44117;DHT22;29781;49.480;8.512;2024-03-17T02:46:59;6.40;99.90
44117;DHT22;29781;49.480;8.512;2024-03-17T02:49:26;6.40;99.90
44117;DHT22;29781;49.480;8.512;2024-03-17T02:51:53;6.30;99.90
44117;DHT22;29781;49.480;8.512;2024-03-17T02:54:20;6.50;99.90
44117;DHT22;29781;49.480;8.512;2024-03-17T02:56:45;6.80;99.90
44117;DHT22;29781;49.480;8.512;2024-03-17T02:59:11;7.10;99.90
44117;DHT22;29781;49.480;8.512;2024-03-17T03:01:37;7.20;99.90
44117;DHT22;29781;49.480;8.512;2024-03-17T03:04:02;7.30;99.90
44117;DHT22;29781;49.480;8.512;2024-03-17T03:06:28;7.50;99.90
44117;DHT22;29781;49.480;8.512;2024-03-17T03:08:53;7.70;99.90
44117;DHT22;29781;49.480;8.512;2024-03-17T03:11:19;7.80;99.90
44117;DHT22;29781;49.480;8.512;2024-03-17T03:13:44;7.90;99.90
44117;DHT22;29781;49.480;8.512;2024-03-17T03:16:11;7.80;99.90
44117;DHT22;29781;49.480;8.512;2024-03-17T03:18:38;7.40;99.90
44117;DHT22;29781;49.480;8.512;2024-03-17T03:21:07;7.20;99.90
44117;DHT22;29781;49.480;8.512;2024-03-17T03:23:33;7.20;99.90
44117;DHT22;29781;49.480;8.512;2024-03-17T03:26:00;7.20;99.90
44117;DHT22;29781;49.480;8.512;2024-03-17T03:28:29;7.10;99.90
44117;DHT22;29781;49.480;8.512;2024-03-17T03:30:54;7.10;99.90
44117;DHT22;29781;49.480;8.512;2024-03-17T03:35:48;7.20;99.90
44117;DHT22;29781;49.480;8.512;2024-03-17T03:38:15;7.00;99.90
44117;DHT22;29781;49.480;8.512;2024-03-17T03:40:41;6.90;99.90
44117;DHT22;29781;49.480;8.512;2024-03-17T03:43:07;7.10;99.90
44117;DHT22;29781;49.480;8.512;2024-03-17T03:45:34;7.40;99.90
44117;DHT22;29781;49.480;8.512;2024-03-17T03:48:00;7.60;99.90
44117;DHT22;29781;49.480;8.512;2024-03-17T03:50:26;7.80;99.90
44117;DHT22;29781;49.480;8.512;2024-03-17T03:52:51;7.60;99.90
44117;DHT22;29781;49.480;8.512;2024-03-17T03:55:19;7.30;99.90
44117;DHT22;29781;49.480;8.512;2024-03-17T03:57:44;7.10;99.90
44117;DHT22;29781;49.480;8.512;2024-03-17T04:00:17;6.90;99.90
44117;DHT22;29781;49.480;8.512;2024-03-17T04:02:47;6.70;99.90
44117;DHT22;29781;49.480;8.512;2024-03-17T04:05:13;6.50;99.90
44117;DHT22;29781;49.480;8.512;2024-03-17T04:07:38;6.50;99.90
44117;DHT22;29781;49.480;8.512;2024-03-17T04:10:05;6.70;99.90
44117;DHT22;29781;49.480;8.512;2024-03-17T04:12:31;7.00;99.90
44117;DHT22;29781;49.480;8.512;2024-03-17T04:15:00;7.20;99.90
44117;DHT22;29781;49.480;8.512;2024-03-17T04:17:26;7.40;99.90
44117;DHT22;29781;49.480;8.512;2024-03-17T04:19:55;7.50;99.90
44117;DHT22;29781;49.480;8.512;2024-03-17T04:22:21;7.60;99.90
44117;DHT22;29781;49.480;8.512;2024-03-17T04:24:48;7.30;99.90
44117;DHT22;29781;49.480;8.512;2024-03-17T04:27:24;7.10;99.90
44117;DHT22;29781;49.480;8.512;2024-03-17T04:29:52;7.00;99.90
44117;DHT22;29781;49.480;8.512;2024-03-17T04:32:19;6.80;99.90
44117;DHT22;29781;49.480;8.512;2024-03-17T04:34:44;6.60;99.90
44117;DHT22;29781;49.480;8.512;2024-03-17T04:37:10;6.70;99.90
44117;DHT22;29781;49.480;8.512;2024-03-17T04:39:38;7.00;99.90
44117;DHT22;29781;49.480;8.512;2024-03-17T04:42:04;7.20;99.90
44117;DHT22;29781;49.480;8.512;2024-03-17T04:44:31;7.30;99.90
44117;DHT22;29781;49.480;8.512;2024-03-17T04:46:56;7.50;99.90
44117;DHT22;29781;49.480;8.512;2024-03-17T04:49:22;7.50;99.90
44117;DHT22;29781;49.480;8.512;2024-03-17T04:51:47;7.40;99.90
44117;DHT22;29781;49.480;8.512;2024-03-17T04:54:13;7.00;99.90
44117;DHT22;29781;49.480;8.512;2024-03-17T04:56:38;6.90;99.90
44117;DHT22;29781;49.480;8.512;2024-03-17T04:59:04;6.90;99.90
44117;DHT22;29781;49.480;8.512;2024-03-17T05:01:30;7.10;99.90
44117;DHT22;29781;49.480;8.512;2024-03-17T05:04:02;6.90;99.90
44117;DHT22;29781;49.480;8.512;2024-03-17T05:06:28;6.60;99.90
44117;DHT22;29781;49.480;8.512;2024-03-17T05:08:54;6.40;99.90
44117;DHT22;29781;49.480;8.512;2024-03-17T05:11:19;6.30;99.90
44117;DHT22;29781;49.480;8.512;2024-03-17T05:13:45;6.20;99.90
44117;DHT22;29781;49.480;8.512;2024-03-17T05:16:11;6.40;99.90
44117;DHT22;29781;49.480;8.512;2024-03-17T05:18:36;6.70;99.90
44117;DHT22;29781;49.480;8.512;2024-03-17T05:21:05;6.90;99.90
44117;DHT22;29781;49.480;8.512;2024-03-17T05:23:36;7.10;99.90
44117;DHT22;29781;49.480;8.512;2024-03-17T05:26:02;6.70;99.90
44117;DHT22;29781;49.480;8.512;2024-03-17T05:28:30;6.40;99.90
44117;DHT22;29781;49.480;8.512;2024-03-17T05:30:55;6.10;99.90
44117;DHT22;29781;49.480;8.512;2024-03-17T05:33:23;5.90;99.90
44117;DHT22;29781;49.480;8.512;2024-03-17T05:35:56;5.70;99.90
44117;DHT22;29781;49.480;8.512;2024-03-17T05:38:23;5.70;99.90
44117;DHT22;29781;49.480;8.512;2024-03-17T05:43:19;5.80;99.90
44117;DHT22;29781;49.480;8.512;2024-03-17T05:45:44;5.90;99.90
44117;DHT22;29781;49.480;8.512;2024-03-17T05:48:10;6.20;99.90
44117;DHT22;29781;49.480;8.512;2024-03-17T05:50:35;6.30;99.90
44117;DHT22;29781;49.480;8.512;2024-03-17T05:53:00;6.60;99.90
44117;DHT22;29781;49.480;8.512;2024-03-17T05:55:26;6.90;99.90
44117;DHT22;29781;49.480;8.512;2024-03-17T05:57:52;6.90;99.90
44117;DHT22;29781;49.480;8.512;2024-03-17T06:00:17;6.70;99.90
44117;DHT22;29781;49.480;8.512;2024-03-17T06:02:44;6.80;99.90
44117;DHT22;29781;49.480;8.512;2024-03-17T06:05:09;7.00;99.90
44117;DHT22;29781;49.480;8.512;2024-03-17T06:07:37;7.20;99.90
44117;DHT22;29781;49.480;8.512;2024-03-17T06:10:03;7.40;99.90
44117;DHT22;29781;49.480;8.512;2024-03-17T06:12:28;7.50;99.90
44117;DHT22;29781;49.480;8.512;2024-03-17T06:14:56;7.30;99.90
44117;DHT22;29781;49.480;8.512;2024-03-17T06:17:21;7.20;99.90
44117;DHT22;29781;49.480;8.512;2024-03-17T06:19:47;7.10;99.90
44117;DHT22;29781;49.480;8.512;2024-03-17T06:22:12;7.20;99.90
44117;DHT22;29781;49.480;8.512;2024-03-17T06:24:37;7.20;99.90
44117;DHT22;29781;49.480;8.512;2024-03-17T06:27:03;7.30;99.90
44117;DHT22;29781;49.480;8.512;2024-03-17T06:29:29;7.40;99.90
44117;DHT22;29781;49.480;8.512;2024-03-17T06:31:54;7.60;99.90
44117;DHT22;29781;49.480;8.512;2024-03-17T06:34:20;7.30;99.90
44117;DHT22;29781;49.480;8.512;2024-03-17T06:36:47;6.80;99.90
44117;DHT22;29781;49.480;8.512;2024-03-17T06:39:13;6.50;99.90
44117;DHT22;29781;49.480;8.512;2024-03-17T06:41:42;6.30;99.90
44117;DHT22;29781;49.480;8.512;2024-03-17T06:44:07;6.10;99.90
44117;DHT22;29781;49.480;8.512;2024-03-17T06:46:33;6.00;99.90
44117;DHT22;29781;49.480;8.512;2024-03-17T06:48:58;6.00;99.90
44117;DHT22;29781;49.480;8.512;2024-03-17T06:51:25;6.10;99.90
44117;DHT22;29781;49.480;8.512;2024-03-17T06:53:50;6.30;99.90
44117;DHT22;29781;49.480;8.512;2024-03-17T06:56:16;6.60;99.90
44117;DHT22;29781;49.480;8.512;2024-03-17T06:58:41;6.80;99.90
44117;DHT22;29781;49.480;8.512;2024-03-17T07:01:08;7.00;99.90
44117;DHT22;29781;49.480;8.512;2024-03-17T07:03:34;7.20;99.90
44117;DHT22;29781;49.480;8.512;2024-03-17T07:06:01;7.50;99.90
44117;DHT22;29781;49.480;8.512;2024-03-17T07:08:31;7.60;99.90
44117;DHT22;29781;49.480;8.512;2024-03-17T07:10:57;7.80;99.90
44117;DHT22;29781;49.480;8.512;2024-03-17T07:13:23;7.90;99.90
44117;DHT22;29781;49.480;8.512;2024-03-17T07:15:49;8.00;99.90
44117;DHT22;29781;49.480;8.512;2024-03-17T07:18:14;8.30;99.90
44117;DHT22;29781;49.480;8.512;2024-03-17T07:20:40;8.40;99.90
44117;DHT22;29781;49.480;8.512;2024-03-17T07:23:05;8.40;99.90
44117;DHT22;29781;49.480;8.512;2024-03-17T07:25:31;8.50;99.90
44117;DHT22;29781;49.480;8.512;2024-03-17T07:27:56;8.80;99.90
44117;DHT22;29781;49.480;8.512;2024-03-17T07:30:22;9.20;99.90
44117;DHT22;29781;49.480;8.512;2024-03-17T07:32:47;9.40;99.90
44117;DHT22;29781;49.480;8.512;2024-03-17T07:35:13;9.60;99.90
44117;DHT22;29781;49.480;8.512;2024-03-17T07:37:39;9.30;99.90
44117;DHT22;29781;49.480;8.512;2024-03-17T07:40:06;9.20;99.90
44117;DHT22;29781;49.480;8.512;2024-03-17T07:42:36;9.50;99.90
44117;DHT22;29781;49.480;8.512;2024-03-17T07:45:02;9.70;99.90
44117;DHT22;29781;49.480;8.512;2024-03-17T07:47:27;9.70;99.90
44117;DHT22;29781;49.480;8.512;2024-03-17T07:50:03;9.30;99.90
44117;DHT22;29781;49.480;8.512;2024-03-17T07:52:32;9.20;99.90
44117;DHT22;29781;49.480;8.512;2024-03-17T07:54:57;9.30;99.90
44117;DHT22;29781;49.480;8.512;2024-03-17T07:57:23;9.70;99.90
44117;DHT22;29781;49.480;8.512;2024-03-17T07:59:51;10.20;99.90
44117;DHT22;29781;49.480;8.512;2024-03-17T08:02:17;10.30;99.90
44117;DHT22;29781;49.480;8.512;2024-03-17T08:04:43;10.20;99.90
44117;DHT22;29781;49.480;8.512;2024-03-17T08:07:10;10.40;99.90
44117;DHT22;29781;49.480;8.512;2024-03-17T08:09:36;10.30;99.90
44117;DHT22;29781;49.480;8.512;2024-03-17T08:12:01;10.30;99.90
44117;DHT22;29781;49.480;8.512;2024-03-17T08:14:32;10.00;99.90
44117;DHT22;29781;49.480;8.512;2024-03-17T08:16:57;10.20;99.90
44117;DHT22;29781;49.480;8.512;2024-03-17T08:19:23;10.40;99.90
44117;DHT22;29781;49.480;8.512;2024-03-17T08:21:48;10.50;99.90
44117;DHT22;29781;49.480;8.512;2024-03-17T08:24:14;10.40;99.90
44117;DHT22;29781;49.480;8.512;2024-03-17T08:26:40;10.70;99.90
44117;DHT22;29781;49.480;8.512;2024-03-17T08:29:06;10.70;99.90
44117;DHT22;29781;49.480;8.512;2024-03-17T08:31:32;11.40;99.90
44117;DHT22;29781;49.480;8.512;2024-03-17T08:33:57;11.70;99.90
44117;DHT22;29781;49.480;8.512;2024-03-17T08:36:23;11.90;99.90
44117;DHT22;29781;49.480;8.512;2024-03-17T08:38:49;12.20;99.90
44117;DHT22;29781;49.480;8.512;2024-03-17T08:41:16;12.20;99.90
44117;DHT22;29781;49.480;8.512;2024-03-17T08:43:41;12.10;99.90
44117;DHT22;29781;49.480;8.512;2024-03-17T08:46:09;11.60;99.90
44117;DHT22;29781;49.480;8.512;2024-03-17T08:48:38;10.80;99.90
44117;DHT22;29781;49.480;8.512;2024-03-17T08:51:05;10.70;99.90
44117;DHT22;29781;49.480;8.512;2024-03-17T08:53:31;11.20;99.90
44117;DHT22;29781;49.480;8.512;2024-03-17T08:55:58;11.60;99.90
44117;DHT22;29781;49.480;8.512;2024-03-17T08:58:24;11.80;99.90
44117;DHT22;29781;49.480;8.512;2024-03-17T09:00:50;11.80;99.90
44117;DHT22;29781;49.480;8.512;2024-03-17T09:03:16;12.30;99.90
44117;DHT22;29781;49.480;8.512;2024-03-17T09:05:43;12.20;99.90
44117;DHT22;29781;49.480;8.512;2024-03-17T09:08:16;12.40;99.90
44117;DHT22;29781;49.480;8.512;2024-03-17T09:10:43;12.50;99.90
44117;DHT22;29781;49.480;8.512;2024-03-17T09:13:19;12.10;99.90
44117;DHT22;29781;49.480;8.512;2024-03-17T09:15:59;12.20;99.90
44117;DHT22;29781;49.480;8.512;2024-03-17T09:18:28;12.60;99.90
44117;DHT22;29781;49.480;8.512;2024-03-17T09:21:07;12.90;99.90
44117;DHT22;29781;49.480;8.512;2024-03-17T09:23:34;13.10;99.90
44117;DHT22;29781;49.480;8.512;2024-03-17T09:26:01;12.60;99.90
44117;DHT22;29781;49.480;8.512;2024-03-17T09:28:27;11.50;99.90
44117;DHT22;29781;49.480;8.512;2024-03-17T09:30:53;11.40;99.90
44117;DHT22;29781;49.480;8.512;2024-03-17T09:33:21;10.90;99.90
44117;DHT22;29781;49.480;8.512;2024-03-17T09:35:58;11.30;99.90
44117;DHT22;29781;49.480;8.512;2024-03-17T09:38:24;11.70;99.90
44117;DHT22;29781;49.480;8.512;2024-03-17T09:40:49;12.20;99.90
44117;DHT22;29781;49.480;8.512;2024-03-17T09:43:18;12.70;99.90
44117;DHT22;29781;49.480;8.512;2024-03-17T09:45:44;12.70;99.90
44117;DHT22;29781;49.480;8.512;2024-03-17T09:48:14;12.70;99.90
44117;DHT22;29781;49.480;8.512;2024-03-17T09:50:41;13.00;99.90
44117;DHT22;29781;49.480;8.512;2024-03-17T09:53:06;13.30;99.90
44117;DHT22;29781;49.480;8.512;2024-03-17T09:55:37;13.70;99.90
44117;DHT22;29781;49.480;8.512;2024-03-17T09:58:02;13.90;99.90
44117;DHT22;29781;49.480;8.512;2024-03-17T10:00:28;14.00;99.90
44117;DHT22;29781;49.480;8.512;2024-03-17T10:02:53;13.90;99.90
44117;DHT22;29781;49.480;8.512;2024-03-17T10:05:21;13.80;99.90
44117;DHT22;29781;49.480;8.512;2024-03-17T10:07:47;12.90;99.90
44117;DHT22;29781;49.480;8.512;2024-03-17T10:10:14;12.00;99.90
44117;DHT22;29781;49.480;8.512;2024-03-17T10:12:41;12.20;99.90
44117;DHT22;29781;49.480;8.512;2024-03-17T10:15:10;12.80;99.90
44117;DHT22;29781;49.480;8.512;2024-03-17T10:17:37;13.50;99.90
44117;DHT22;29781;49.480;8.512;2024-03-17T10:22:59;14.60;99.90
44117;DHT22;29781;49.480;8.512;2024-03-17T10:25:26;14.60;99.90
44117;DHT22;29781;49.480;8.512;2024-03-17T10:27:53;13.90;99.90
44117;DHT22;29781;49.480;8.512;2024-03-17T10:30:19;14.90;99.90
44117;DHT22;29781;49.480;8.512;2024-03-17T10:32:52;15.50;99.90
44117;DHT22;29781;49.480;8.512;2024-03-17T10:35:28;16.00;99.90
44117;DHT22;29781;49.480;8.512;2024-03-17T10:38:04;15.90;99.90
44117;DHT22;29781;49.480;8.512;2024-03-17T10:40:31;15.70;99.90
44117;DHT22;29781;49.480;8.512;2024-03-17T10:43:00;16.00;99.90
44117;DHT22;29781;49.480;8.512;2024-03-17T10:45:27;16.40;99.90
44117;DHT22;29781;49.480;8.512;2024-03-17T10:47:56;16.10;99.90
44117;DHT22;29781;49.480;8.512;2024-03-17T10:50:26;16.30;99.90
44117;DHT22;29781;49.480;8.512;2024-03-17T10:52:55;16.20;99.90
44117;DHT22;29781;49.480;8.512;2024-03-17T10:55:24;15.70;99.90
44117;DHT22;29781;49.480;8.512;2024-03-17T10:57:54;15.40;99.90
44117;DHT22;29781;49.480;8.512;2024-03-17T11:00:23;15.70;99.90
44117;DHT22;29781;49.480;8.512;2024-03-17T11:02:51;15.60;99.90
44117;DHT22;29781;49.480;8.512;2024-03-17T11:05:28;15.80;99.90
44117;DHT22;29781;49.480;8.512;2024-03-17T11:07:59;16.10;99.90
44117;DHT22;29781;49.480;8.512;2024-03-17T11:10:35;16.30;99.90
44117;DHT22;29781;49.480;8.512;2024-03-17T11:13:03;15.70;99.90
44117;DHT22;29781;49.480;8.512;2024-03-17T11:20:42;15.20;99.90
44117;DHT22;29781;49.480;8.512;2024-03-17T11:23:09;15.10;99.90
44117;DHT22;29781;49.480;8.512;2024-03-17T11:25:38;15.20;99.90
44117;DHT22;29781;49.480;8.512;2024-03-17T11:28:07;15.10;99.90
44117;DHT22;29781;49.480;8.512;2024-03-17T11:38:55;15.20;99.90
44117;DHT22;29781;49.480;8.512;2024-03-17T11:46:58;14.80;99.90
44117;DHT22;29781;49.480;8.512;2024-03-17T11:49:40;15.00;99.90
44117;DHT22;29781;49.480;8.512;2024-03-17T11:52:09;15.20;99.90
44117;DHT22;29781;49.480;8.512;2024-03-17T11:54:37;15.20;99.90
44117;DHT22;29781;49.480;8.512;2024-03-17T11:57:08;15.20;99.90
44117;DHT22;29781;49.480;8.512;2024-03-17T11:59:34;14.90;99.90
44117;DHT22;29781;49.480;8.512;2024-03-17T12:02:00;14.70;99.90
44117;DHT22;29781;49.480;8.512;2024-03-17T12:04:27;14.40;99.90
44117;DHT22;29781;49.480;8.512;2024-03-17T12:06:56;14.80;99.90
44117;DHT22;29781;49.480;8.512;2024-03-17T12:09:27;14.70;99.90
44117;DHT22;29781;49.480;8.512;2024-03-17T12:14:26;14.10;99.90
44117;DHT22;29781;49.480;8.512;2024-03-17T12:16:53;14.20;99.90
44117;DHT22;29781;49.480;8.512;2024-03-17T12:19:19;14.30;99.90
44117;DHT22;29781;49.480;8.512;2024-03-17T12:21:54;14.40;99.90
44117;DHT22;29781;49.480;8.512;2024-03-17T12:24:22;14.60;99.90
44117;DHT22;29781;49.480;8.512;2024-03-17T12:26:49;14.60;99.90
44117;DHT22;29781;49.480;8.512;2024-03-17T12:32:03;14.80;99.90
44117;DHT22;29781;49.480;8.512;2024-03-17T12:34:30;14.60;99.90
44117;DHT22;29781;49.480;8.512;2024-03-17T12:36:57;14.10;99.90
44117;DHT22;29781;49.480;8.512;2024-03-17T12:39:25;13.90;99.90
44117;DHT22;29781;49.480;8.512;2024-03-17T12:44:52;14.10;99.90
44117;DHT22;29781;49.480;8.512;2024-03-17T12:47:19;13.80;99.90
44117;DHT22;29781;49.480;8.512;2024-03-17T12:52:33;13.50;99.90
44117;DHT22;29781;49.480;8.512;2024-03-17T12:55:09;13.40;99.90
44117;DHT22;29781;49.480;8.512;2024-03-17T12:58:06;13.20;99.90
44117;DHT22;29781;49.480;8.512;2024-03-17T13:01:04;13.10;99.90
44117;DHT22;29781;49.480;8.512;2024-03-17T13:03:33;13.00;99.90
44117;DHT22;29781;49.480;8.512;2024-03-17T13:06:03;13.10;99.90
44117;DHT22;29781;49.480;8.512;2024-03-17T13:08:32;13.40;99.90
44117;DHT22;29781;49.480;8.512;2024-03-17T13:11:01;13.30;99.90
44117;DHT22;29781;49.480;8.512;2024-03-17T13:13:29;13.60;99.90
44117;DHT22;29781;49.480;8.512;2024-03-17T13:15:55;13.60;99.90
44117;DHT22;29781;49.480;8.512;2024-03-17T13:18:21;14.00;99.90
44117;DHT22;29781;49.480;8.512;2024-03-17T13:20:47;13.80;99.90
44117;DHT22;29781;49.480;8.512;2024-03-17T13:23:15;13.80;99.90
44117;DHT22;29781;49.480;8.512;2024-03-17T13:25:41;14.00;99.90
44117;DHT22;29781;49.480;8.512;2024-03-17T13:28:09;14.20;99.90
44117;DHT22;29781;49.480;8.512;2024-03-17T13:30:35;13.90;99.90
44117;DHT22;29781;49.480;8.512;2024-03-17T13:33:02;13.80;99.90
44117;DHT22;29781;49.480;8.512;2024-03-17T13:35:33;14.10;99.90
44117;DHT22;29781;49.480;8.512;2024-03-17T13:38:00;14.40;99.90
44117;DHT22;29781;49.480;8.512;2024-03-17T13:40:29;14.60;99.90
44117;DHT22;29781;49.480;8.512;2024-03-17T13:42:55;14.30;99.90
44117;DHT22;29781;49.480;8.512;2024-03-17T13:45:23;13.80;99.90
44117;DHT22;29781;49.480;8.512;2024-03-17T13:47:57;13.50;99.90
44117;DHT22;29781;49.480;8.512;2024-03-17T13:50:23;13.30;99.90
44117;DHT22;29781;49.480;8.512;2024-03-17T13:52:49;13.20;99.90
44117;DHT22;29781;49.480;8.512;2024-03-17T13:55:16;13.20;99.90
44117;DHT22;29781;49.480;8.512;2024-03-17T13:57:48;13.20;99.90
44117;DHT22;29781;49.480;8.512;2024-03-17T14:00:15;13.30;99.90
44117;DHT22;29781;49.480;8.512;2024-03-17T14:02:45;13.30;99.90
44117;DHT22;29781;49.480;8.512;2024-03-17T14:05:13;13.60;99.90
44117;DHT22;29781;49.480;8.512;2024-03-17T14:07:38;13.70;99.90
44117;DHT22;29781;49.480;8.512;2024-03-17T14:10:05;13.50;99.90
44117;DHT22;29781;49.480;8.512;2024-03-17T14:12:31;13.30;99.90
44117;DHT22;29781;49.480;8.512;2024-03-17T14:14:56;13.50;99.90
44117;DHT22;29781;49.480;8.512;2024-03-17T14:17:22;13.40;99.90
44117;DHT22;29781;49.480;8.512;2024-03-17T14:19:48;13.50;99.90
44117;DHT22;29781;49.480;8.512;2024-03-17T14:22:13;13.90;99.90
44117;DHT22;29781;49.480;8.512;2024-03-17T14:24:39;14.20;99.90
44117;DHT22;29781;49.480;8.512;2024-03-17T14:27:06;14.20;99.90
44117;DHT22;29781;49.480;8.512;2024-03-17T14:29:31;14.20;99.90
44117;DHT22;29781;49.480;8.512;2024-03-17T14:31:57;13.80;99.90
44117;DHT22;29781;49.480;8.512;2024-03-17T14:34:23;13.60;99.90
44117;DHT22;29781;49.480;8.512;2024-03-17T14:36:48;13.70;99.90
44117;DHT22;29781;49.480;8.512;2024-03-17T14:39:14;14.00;99.90
44117;DHT22;29781;49.480;8.512;2024-03-17T14:41:39;14.40;99.90
44117;DHT22;29781;49.480;8.512;2024-03-17T14:44:04;14.30;99.90
44117;DHT22;29781;49.480;8.512;2024-03-17T14:46:30;14.20;99.90
44117;DHT22;29781;49.480;8.512;2024-03-17T14:48:57;14.40;99.90
44117;DHT22;29781;49.480;8.512;2024-03-17T14:51:22;14.50;99.90
44117;DHT22;29781;49.480;8.512;2024-03-17T14:53:48;14.10;99.90
44117;DHT22;29781;49.480;8.512;2024-03-17T14:56:19;13.80;99.90
44117;DHT22;29781;49.480;8.512;2024-03-17T14:58:45;13.60;99.90
44117;DHT22;29781;49.480;8.512;2024-03-17T15:01:12;13.70;99.90
44117;DHT22;29781;49.480;8.512;2024-03-17T15:03:38;13.80;99.90
44117;DHT22;29781;49.480;8.512;2024-03-17T15:06:12;14.20;99.90
44117;DHT22;29781;49.480;8.512;2024-03-17T15:08:38;14.50;99.90
44117;DHT22;29781;49.480;8.512;2024-03-17T15:11:03;15.10;99.90
44117;DHT22;29781;49.480;8.512;2024-03-17T15:13:29;14.60;99.90
44117;DHT22;29781;49.480;8.512;2024-03-17T15:15:54;14.30;99.90
44117;DHT22;29781;49.480;8.512;2024-03-17T15:18:21;14.40;99.90
44117;DHT22;29781;49.480;8.512;2024-03-17T15:20:53;14.50;99.90
44117;DHT22;29781;49.480;8.512;2024-03-17T15:23:20;14.50;99.90
44117;DHT22;29781;49.480;8.512;2024-03-17T15:25:45;14.70;99.90
44117;DHT22;29781;49.480;8.512;2024-03-17T15:28:11;14.70;99.90
44117;DHT22;29781;49.480;8.512;2024-03-17T15:30:38;14.40;99.90
44117;DHT22;29781;49.480;8.512;2024-03-17T15:33:04;14.00;99.90
44117;DHT22;29781;49.480;8.512;2024-03-17T15:35:29;13.80;99.90
44117;DHT22;29781;49.480;8.512;2024-03-17T15:37:57;13.70;99.90
44117;DHT22;29781;49.480;8.512;2024-03-17T15:40:22;14.00;99.90
44117;DHT22;29781;49.480;8.512;2024-03-17T15:42:49;14.20;99.90
44117;DHT22;29781;49.480;8.512;2024-03-17T15:45:16;14.30;99.90
44117;DHT22;29781;49.480;8.512;2024-03-17T15:47:43;14.40;99.90
44117;DHT22;29781;49.480;8.512;2024-03-17T15:50:10;14.50;99.90
44117;DHT22;29781;49.480;8.512;2024-03-17T15:52:35;14.50;99.90
44117;DHT22;29781;49.480;8.512;2024-03-17T15:55:03;14.40;99.90
44117;DHT22;29781;49.480;8.512;2024-03-17T15:57:32;14.50;99.90
44117;DHT22;29781;49.480;8.512;2024-03-17T15:59:57;14.60;99.90
44117;DHT22;29781;49.480;8.512;2024-03-17T16:02:26;14.70;99.90
44117;DHT22;29781;49.480;8.512;2024-03-17T16:04:52;14.60;99.90
44117;DHT22;29781;49.480;8.512;2024-03-17T16:07:19;14.60;99.90
44117;DHT22;29781;49.480;8.512;2024-03-17T16:09:48;14.50;99.90
44117;DHT22;29781;49.480;8.512;2024-03-17T16:12:14;14.50;99.90
44117;DHT22;29781;49.480;8.512;2024-03-17T16:14:43;14.40;99.90